Time;durP1;ratioP1;P1;durP2;ratioP2;P2;SDS_P1;SDS_P2;PMS_P1;PMS_P2;Temp;Humidity;BMP_temperature;BMP_pressure;BME280_temperature;BME280_humidity;BME280_pressure;Samples;Min_cycle;Max_cycle;Signal;HPM_P1;HPM_P2
2022/09/22 00:01:17;;;;;;;4.80;4.10;;;8.80;90.30;;;;;;5138734;27;20493;-46
2022/09/22 00:03:46;;;;;;;5.73;3.53;;;8.80;90.30;;;;;;5136525;27;20872;-45
2022/09/22 00:06:33;;;;;;;4.73;3.70;;;8.70;90.30;;;;;;5139067;27;20488;-43
2022/09/22 00:09:00;;;;;;;4.00;3.37;;;8.70;90.40;;;;;;5132791;27;20425;-44
2022/09/22 00:11:28;;;;;;;3.90;3.13;;;8.60;90.40;;;;;;5139003;27;20422;-42
2022/09/22 00:14:06;;;;;;;4.33;3.93;;;8.60;90.40;;;;;;5121574;27;20421;-46
2022/09/22 00:16:36;;;;;;;4.33;3.30;;;8.60;90.50;;;;;;5139025;27;20421;-42
2022/09/22 00:19:06;;;;;;;5.70;3.20;;;8.60;90.50;;;;;;5121102;27;20417;-42
2022/09/22 00:21:32;;;;;;;4.20;3.40;;;8.50;90.50;;;;;;5139255;27;20600;-43
2022/09/22 00:24:01;;;;;;;4.70;3.63;;;8.50;90.90;;;;;;5139474;27;20420;-43
2022/09/22 00:26:26;;;;;;;4.47;3.90;;;8.50;90.60;;;;;;5138425;27;20467;-47
2022/09/22 00:28:52;;;;;;;4.77;3.40;;;8.50;90.70;;;;;;5138900;27;20542;-43
2022/09/22 00:31:20;;;;;;;4.30;3.60;;;8.40;90.80;;;;;;5138344;27;20514;-46
2022/09/22 00:33:46;;;;;;;4.10;3.50;;;8.40;90.90;;;;;;5139244;27;20160;-46
2022/09/22 00:36:13;;;;;;;7.47;4.50;;;8.40;90.90;;;;;;5138501;27;20444;-44
2022/09/22 00:38:39;;;;;;;6.20;3.97;;;8.40;91.00;;;;;;5133736;27;20494;-46
2022/09/22 00:41:09;;;;;;;4.50;3.57;;;8.30;91.00;;;;;;5119946;27;20423;-44
2022/09/22 00:43:36;;;;;;;4.47;4.00;;;8.30;91.00;;;;;;5134192;27;20419;-45
2022/09/22 00:46:07;;;;;;;5.97;4.00;;;8.30;91.00;;;;;;5116209;28;20562;-45
2022/09/22 00:48:36;;;;;;;6.83;4.63;;;8.30;91.10;;;;;;5099131;28;20436;-46
2022/09/22 00:51:03;;;;;;;8.83;4.00;;;8.20;91.00;;;;;;5099611;28;20404;-44
2022/09/22 00:53:30;;;;;;;5.47;4.40;;;8.20;91.10;;;;;;5100199;28;20475;-42
2022/09/22 00:56:04;;;;;;;5.27;4.77;;;8.20;91.10;;;;;;5104560;28;20525;-43
2022/09/22 00:58:37;;;;;;;4.57;3.93;;;8.20;91.10;;;;;;5138582;28;20439;-44
2022/09/22 01:01:03;;;;;;;6.10;3.83;;;8.10;91.10;;;;;;5120663;28;20842;-44
2022/09/22 01:03:29;;;;;;;5.63;4.20;;;8.10;91.10;;;;;;5120336;28;20485;-43
2022/09/22 01:05:57;;;;;;;5.83;4.40;;;8.10;91.50;;;;;;5121764;27;20472;-44
2022/09/22 01:08:24;;;;;;;6.37;4.43;;;8.10;91.20;;;;;;5143120;27;20496;-46
2022/09/22 01:10:50;;;;;;;7.87;5.27;;;8.00;91.20;;;;;;5143307;27;20406;-43
2022/09/22 01:13:37;;;;;;;6.67;3.97;;;8.00;91.20;;;;;;5142265;27;20476;-46
2022/09/22 01:16:21;;;;;;;7.70;5.20;;;8.00;91.20;;;;;;5124843;27;20409;-44
2022/09/22 01:18:57;;;;;;;9.47;6.33;;;8.00;91.30;;;;;;5142712;27;20431;-45
2022/09/22 01:21:33;;;;;;;6.70;5.50;;;7.90;91.40;;;;;;5142509;27;20812;-46
2022/09/22 01:24:36;;;;;;;10.30;6.67;;;7.90;91.40;;;;;;5107277;27;20477;-47
2022/09/22 01:27:42;;;;;;;9.47;5.70;;;7.90;91.50;;;;;;5142282;27;20460;-46
2022/09/22 01:30:12;;;;;;;8.10;5.63;;;7.90;91.50;;;;;;5124728;27;20712;-44
2022/09/22 01:32:47;;;;;;;8.10;6.20;;;7.80;91.50;;;;;;5136600;27;21033;-44
2022/09/22 01:35:30;;;;;;;11.63;6.77;;;7.80;91.50;;;;;;5121844;28;20490;-45
2022/09/22 01:38:04;;;;;;;6.33;5.20;;;7.80;91.60;;;;;;5121978;28;20418;-44
2022/09/22 01:40:37;;;;;;;7.13;5.37;;;7.80;91.70;;;;;;5121724;28;20434;-43
2022/09/22 01:43:41;;;;;;;8.27;6.03;;;7.80;91.70;;;;;;5103924;28;20442;-45
2022/09/22 01:46:27;;;;;;;7.40;5.70;;;7.70;91.80;;;;;;5038915;28;20488;-45
2022/09/22 01:48:54;;;;;;;7.70;5.23;;;7.70;91.80;;;;;;5022641;28;20668;-45
2022/09/22 01:51:33;;;;;;;7.43;5.20;;;7.70;91.80;;;;;;5071830;28;20699;-44
2022/09/22 01:54:13;;;;;;;6.53;4.67;;;7.70;91.80;;;;;;5102517;28;20467;-43
2022/09/22 01:56:40;;;;;;;6.97;4.90;;;7.60;91.70;;;;;;5102946;28;20405;-44
2022/09/22 01:59:06;;;;;;;6.07;4.67;;;7.60;91.70;;;;;;5120673;28;20433;-45
2022/09/22 02:01:38;;;;;;;7.00;5.30;;;7.60;91.80;;;;;;5085852;28;20733;-45
2022/09/22 02:04:34;;;;;;;5.13;4.50;;;7.60;91.80;;;;;;5120580;28;20422;-43
2022/09/22 02:07:09;;;;;;;6.70;4.20;;;7.60;91.80;;;;;;5092017;28;20563;-44
2022/09/22 02:09:35;;;;;;;6.47;4.43;;;7.50;91.70;;;;;;5121305;28;20453;-44
2022/09/22 02:12:02;;;;;;;6.00;4.67;;;7.50;91.70;;;;;;5103309;28;20421;-44
2022/09/22 02:14:28;;;;;;;6.03;4.13;;;7.50;91.80;;;;;;5103248;28;20434;-45
2022/09/22 02:16:53;;;;;;;4.43;3.60;;;7.50;91.80;;;;;;5120818;28;20671;-43
2022/09/22 02:19:22;;;;;;;4.90;4.40;;;7.40;91.80;;;;;;5102376;28;20685;-45
2022/09/22 02:21:48;;;;;;;6.03;4.27;;;7.40;91.80;;;;;;5121008;28;20164;-46
2022/09/22 02:24:41;;;;;;;4.30;3.83;;;7.40;91.90;;;;;;5103036;28;20520;-45
2022/09/22 02:27:19;;;;;;;5.37;4.90;;;7.40;91.90;;;;;;5102002;28;20462;-43
2022/09/22 02:30:08;;;;;;;4.33;3.57;;;7.40;91.90;;;;;;5103176;28;20854;-44
2022/09/22 02:32:35;;;;;;;3.63;3.20;;;7.30;91.90;;;;;;5119366;28;20725;-43
2022/09/22 02:35:01;;;;;;;4.60;3.80;;;7.30;91.90;;;;;;5102652;28;20398;-45
2022/09/22 02:37:44;;;;;;;3.80;3.40;;;7.30;91.90;;;;;;5119579;28;20838;-44
2022/09/22 02:40:29;;;;;;;5.10;3.37;;;7.30;91.90;;;;;;5120840;28;20471;-44
2022/09/22 02:43:07;;;;;;;4.60;3.80;;;7.30;91.90;;;;;;5102556;28;20442;-45
2022/09/22 02:45:59;;;;;;;3.83;3.40;;;7.20;91.90;;;;;;5101235;28;20406;-46
2022/09/22 02:48:29;;;;;;;4.17;3.60;;;7.20;91.90;;;;;;5118801;28;20425;-46
2022/09/22 02:50:55;;;;;;;3.93;3.40;;;7.20;91.90;;;;;;5101255;28;20411;-44
2022/09/22 02:53:20;;;;;;;5.53;4.17;;;7.10;91.90;;;;;;5101722;28;20444;-45
2022/09/22 02:55:46;;;;;;;4.23;3.83;;;7.10;92.00;;;;;;5096148;28;20923;-45
2022/09/22 02:58:14;;;;;;;4.27;3.87;;;7.10;92.00;;;;;;5097634;28;20322;-47
2022/09/22 03:00:39;;;;;;;4.27;3.40;;;7.10;92.00;;;;;;5096651;28;20177;-46
2022/09/22 03:03:06;;;;;;;5.60;4.53;;;7.10;92.10;;;;;;5098218;28;20461;-45
2022/09/22 03:05:31;;;;;;;4.70;3.83;;;7.10;92.10;;;;;;5098216;28;20177;-46
2022/09/22 03:07:57;;;;;;;5.00;4.10;;;7.10;92.20;;;;;;5096300;28;20484;-47
2022/09/22 03:10:23;;;;;;;4.23;3.83;;;7.00;92.10;;;;;;5096290;28;20172;-46
2022/09/22 03:12:49;;;;;;;3.07;2.73;;;7.00;92.20;;;;;;5096812;28;20185;-43
2022/09/22 03:15:15;;;;;;;4.83;3.50;;;7.00;92.20;;;;;;5097797;28;20410;-43
2022/09/22 03:17:41;;;;;;;4.80;3.83;;;7.00;92.30;;;;;;5097371;28;20563;-46
2022/09/22 03:20:09;;;;;;;4.60;3.87;;;6.90;92.30;;;;;;5098109;28;20409;-46
2022/09/22 03:22:35;;;;;;;4.77;4.27;;;6.90;92.30;;;;;;5097203;28;20414;-46
2022/09/22 03:25:00;;;;;;;5.50;3.60;;;6.90;92.30;;;;;;5098586;28;20771;-46
2022/09/22 03:27:26;;;;;;;4.30;3.90;;;6.90;92.30;;;;;;5098546;28;20205;-47
2022/09/22 03:29:53;;;;;;;3.80;3.40;;;6.90;92.40;;;;;;5097466;28;20279;-44
2022/09/22 03:32:20;;;;;;;4.43;4.03;;;6.90;92.40;;;;;;5098447;28;20479;-43
2022/09/22 03:34:45;;;;;;;5.17;4.20;;;6.80;92.30;;;;;;5096903;28;20435;-44
2022/09/22 03:37:11;;;;;;;4.87;3.77;;;6.80;92.30;;;;;;5096970;28;20765;-44
2022/09/22 03:39:36;;;;;;;5.03;3.77;;;6.80;92.30;;;;;;5098112;28;20240;-44
2022/09/22 03:42:02;;;;;;;4.53;3.90;;;6.80;92.30;;;;;;5096700;28;20176;-45
2022/09/22 03:44:27;;;;;;;4.20;3.80;;;6.70;92.20;;;;;;5098186;28;20192;-44
2022/09/22 03:46:53;;;;;;;4.30;3.90;;;6.70;92.30;;;;;;5097749;28;20196;-45
2022/09/22 03:49:19;;;;;;;4.90;4.40;;;6.70;92.30;;;;;;5098345;28;20177;-47
2022/09/22 03:51:45;;;;;;;3.77;3.37;;;6.70;92.30;;;;;;5098931;28;20169;-45
2022/09/22 03:54:11;;;;;;;4.80;4.27;;;6.60;92.30;;;;;;5103124;28;20875;-45
2022/09/22 03:56:37;;;;;;;4.70;4.13;;;6.70;92.40;;;;;;5118905;28;20181;-44
2022/09/22 03:59:03;;;;;;;5.10;4.23;;;6.60;92.40;;;;;;5117355;28;20425;-43
2022/09/22 04:01:28;;;;;;;5.90;4.70;;;6.60;92.40;;;;;;5099168;28;20497;-45
2022/09/22 04:03:54;;;;;;;4.57;3.70;;;6.60;92.40;;;;;;5117628;28;20665;-44
2022/09/22 04:06:20;;;;;;;6.50;3.90;;;6.60;92.40;;;;;;5118700;28;20196;-44
2022/09/22 04:08:46;;;;;;;5.13;3.80;;;6.60;92.50;;;;;;5100198;28;20183;-45
2022/09/22 04:11:11;;;;;;;4.30;3.90;;;6.50;92.40;;;;;;5117961;28;20470;-43
2022/09/22 04:13:37;;;;;;;4.60;4.20;;;6.50;92.40;;;;;;5117001;28;20176;-45
2022/09/22 04:16:04;;;;;;;4.53;3.80;;;6.50;92.40;;;;;;5118296;28;20190;-43
2022/09/22 04:18:30;;;;;;;3.90;3.50;;;6.50;92.40;;;;;;5116338;28;20263;-44
2022/09/22 04:20:57;;;;;;;5.60;4.57;;;6.50;92.40;;;;;;5098279;28;20497;-44
2022/09/22 04:23:24;;;;;;;4.97;4.47;;;6.40;92.70;;;;;;5115929;28;20348;-43
2022/09/22 04:25:50;;;;;;;4.93;4.50;;;6.40;92.40;;;;;;5114110;28;20801;-44
2022/09/22 04:28:15;;;;;;;4.37;3.90;;;6.40;92.40;;;;;;5116039;28;20406;-45
2022/09/22 04:30:42;;;;;;;6.07;5.23;;;6.40;92.50;;;;;;5098941;28;20180;-44
2022/09/22 04:33:09;;;;;;;6.70;4.27;;;6.40;92.50;;;;;;5117091;28;20172;-44
2022/09/22 04:35:36;;;;;;;6.47;3.90;;;6.40;92.50;;;;;;5115445;28;20711;-44
2022/09/22 04:38:02;;;;;;;5.07;4.10;;;6.30;92.50;;;;;;5114906;28;20505;-43
2022/09/22 04:40:28;;;;;;;6.93;4.67;;;6.30;92.50;;;;;;5114357;28;20418;-45
2022/09/22 04:42:54;;;;;;;6.37;4.33;;;6.30;92.50;;;;;;5113867;28;20438;-45
2022/09/22 04:45:20;;;;;;;5.80;4.23;;;6.30;92.50;;;;;;5113512;28;20455;-43
2022/09/22 04:47:47;;;;;;;5.77;4.73;;;6.30;92.50;;;;;;5095704;28;20362;-44
2022/09/22 04:50:13;;;;;;;4.87;4.23;;;6.30;92.50;;;;;;5111456;28;20292;-44
2022/09/22 04:52:47;;;;;;;5.20;4.43;;;6.30;92.50;;;;;;5111452;28;20417;-45
2022/09/22 04:55:14;;;;;;;5.40;4.50;;;6.20;92.40;;;;;;5110629;28;20664;-44
2022/09/22 04:57:40;;;;;;;6.47;5.13;;;6.20;92.50;;;;;;5112811;28;20616;-45
2022/09/22 05:00:07;;;;;;;6.27;5.07;;;6.20;92.50;;;;;;5110428;28;20461;-44
2022/09/22 05:02:34;;;;;;;6.57;5.53;;;6.20;92.90;;;;;;5107040;28;20414;-46
2022/09/22 05:05:00;;;;;;;6.23;4.80;;;6.20;92.50;;;;;;5110536;28;20464;-45
2022/09/22 05:07:25;;;;;;;4.90;4.40;;;6.20;92.50;;;;;;5111312;28;20501;-43
2022/09/22 05:09:51;;;;;;;8.43;5.20;;;6.10;92.50;;;;;;5110274;28;20176;-44
2022/09/22 05:12:20;;;;;;;5.07;4.50;;;6.10;92.50;;;;;;5109905;28;20180;-43
2022/09/22 05:14:45;;;;;;;7.30;5.10;;;6.00;92.60;;;;;;5110728;28;20183;-43
2022/09/22 05:17:11;;;;;;;6.10;5.00;;;5.90;92.70;;;;;;5112567;28;20482;-44
2022/09/22 05:19:37;;;;;;;7.10;4.40;;;5.80;92.80;;;;;;5111992;28;20585;-43
2022/09/22 05:22:03;;;;;;;5.10;4.53;;;5.80;93.30;;;;;;5112449;28;20194;-43
2022/09/22 05:24:29;;;;;;;8.57;5.10;;;5.70;93.20;;;;;;5114229;28;20429;-41
2022/09/22 05:26:54;;;;;;;5.60;4.90;;;5.70;93.40;;;;;;5114164;28;20203;-47
2022/09/22 05:29:20;;;;;;;7.37;5.70;;;5.70;93.50;;;;;;5114025;28;20177;-44
2022/09/22 05:31:46;;;;;;;11.33;5.43;;;5.70;93.70;;;;;;5094355;28;20408;-44
2022/09/22 05:34:11;;;;;;;6.40;4.83;;;5.60;93.80;;;;;;5093741;28;20176;-43
2022/09/22 05:36:38;;;;;;;5.87;4.53;;;5.70;93.90;;;;;;5112613;28;20589;-45
2022/09/22 05:39:04;;;;;;;6.13;4.60;;;5.70;93.90;;;;;;5131150;28;20183;-44
2022/09/22 05:41:29;;;;;;;5.80;4.27;;;5.70;93.90;;;;;;5115431;28;20509;-43
2022/09/22 05:43:55;;;;;;;5.30;4.43;;;5.70;93.90;;;;;;5132306;28;20180;-49
2022/09/22 05:46:21;;;;;;;6.60;4.60;;;5.80;93.90;;;;;;5127702;28;20203;-42
2022/09/22 05:48:46;;;;;;;7.60;5.67;;;5.90;94.00;;;;;;5109815;28;20263;-44
2022/09/22 05:51:12;;;;;;;7.70;5.07;;;5.90;94.00;;;;;;5126836;28;20160;-44
2022/09/22 05:53:37;;;;;;;6.17;4.47;;;6.00;94.00;;;;;;5130643;27;20167;-44
2022/09/22 05:56:03;;;;;;;6.53;5.10;;;6.10;93.90;;;;;;5116132;27;20523;-44
2022/09/22 05:58:29;;;;;;;6.03;4.33;;;6.10;93.80;;;;;;5136483;27;20171;-43
2022/09/22 06:00:57;;;;;;;7.83;5.87;;;6.20;93.70;;;;;;5134001;27;20203;-44
2022/09/22 06:03:23;;;;;;;5.17;4.47;;;6.30;93.70;;;;;;5134493;27;20636;-44
2022/09/22 06:05:50;;;;;;;5.17;4.40;;;6.40;93.60;;;;;;5117069;27;20479;-45
2022/09/22 06:08:16;;;;;;;7.20;4.93;;;6.50;93.60;;;;;;5138089;27;20401;-42
2022/09/22 06:10:44;;;;;;;6.47;5.30;;;6.60;93.60;;;;;;5136357;27;20461;-43
2022/09/22 06:13:11;;;;;;;7.80;4.60;;;6.70;93.60;;;;;;5134608;27;20455;-46
2022/09/22 06:15:37;;;;;;;6.13;5.13;;;6.80;93.40;;;;;;5135689;27;20702;-44
2022/09/22 06:18:07;;;;;;;6.07;5.30;;;7.00;93.30;;;;;;5137761;27;20817;-43
2022/09/22 06:20:34;;;;;;;6.37;5.03;;;7.20;93.20;;;;;;5129969;27;20433;-44
2022/09/22 06:22:59;;;;;;;6.50;5.90;;;7.40;93.10;;;;;;5136548;27;20683;-43
2022/09/22 06:25:27;;;;;;;6.93;5.17;;;7.60;93.00;;;;;;5136987;27;20422;-44
2022/09/22 06:28:06;;;;;;;6.43;5.63;;;7.80;92.80;;;;;;5118274;27;20364;-44
2022/09/22 06:30:33;;;;;;;5.90;5.30;;;8.10;92.70;;;;;;5137841;27;20427;-44
2022/09/22 06:32:59;;;;;;;6.17;5.50;;;8.40;92.50;;;;;;5136498;27;20969;-46
2022/09/22 06:35:27;;;;;;;6.17;5.57;;;8.60;92.20;;;;;;5137737;27;20437;-44
2022/09/22 06:37:56;;;;;;;7.37;6.13;;;8.90;92.10;;;;;;5137749;27;20180;-47
2022/09/22 06:40:23;;;;;;;7.00;5.90;;;9.20;91.90;;;;;;5136056;27;20452;-45
2022/09/22 06:42:49;;;;;;;9.43;6.03;;;9.50;91.70;;;;;;5135800;27;20425;-45
2022/09/22 06:45:15;;;;;;;7.03;5.77;;;9.80;91.50;;;;;;5117108;27;20433;-45
2022/09/22 06:47:41;;;;;;;6.60;5.57;;;10.10;90.90;;;;;;5137492;27;20300;-43
2022/09/22 06:50:08;;;;;;;7.23;5.77;;;10.40;90.30;;;;;;5136780;27;20474;-44
2022/09/22 06:52:35;;;;;;;6.17;5.13;;;10.70;90.00;;;;;;5136830;27;20397;-44
2022/09/22 06:55:01;;;;;;;6.40;5.40;;;11.00;89.50;;;;;;5135917;27;20916;-42
2022/09/22 06:57:31;;;;;;;8.10;5.43;;;11.30;88.70;;;;;;5135672;27;20414;-44
2022/09/22 06:59:58;;;;;;;5.90;5.30;;;11.60;88.30;;;;;;5135562;27;20449;-46
2022/09/22 07:02:26;;;;;;;5.27;4.77;;;11.90;87.60;;;;;;5135068;27;20805;-44
2022/09/22 07:04:57;;;;;;;6.63;4.83;;;12.30;87.10;;;;;;5134784;27;20470;-43
2022/09/22 07:07:25;;;;;;;7.70;5.00;;;12.60;86.30;;;;;;5136780;27;20875;-42
2022/09/22 07:09:51;;;;;;;5.57;5.00;;;12.90;85.60;;;;;;5135860;27;20449;-43
2022/09/22 07:12:21;;;;;;;8.43;6.57;;;13.30;85.20;;;;;;5132179;27;20470;-44
2022/09/22 07:14:51;;;;;;;6.73;5.60;;;13.70;84.50;;;;;;5133173;27;20180;-43
2022/09/22 07:17:17;;;;;;;6.97;6.00;;;14.30;83.40;;;;;;5133771;27;20451;-43
2022/09/22 07:19:45;;;;;;;7.40;6.70;;;15.10;81.80;;;;;;5135729;27;20518;-44
2022/09/22 07:22:13;;;;;;;7.40;6.40;;;16.10;79.00;;;;;;5134910;27;20533;-45
2022/09/22 07:24:39;;;;;;;5.90;5.30;;;17.10;75.60;;;;;;5136423;27;20825;-48
2022/09/22 07:27:05;;;;;;;4.80;4.13;;;18.10;71.90;;;;;;5135863;27;21199;-43
2022/09/22 07:29:32;;;;;;;3.90;3.40;;;19.10;67.90;;;;;;5134779;27;20402;-43
2022/09/22 07:31:58;;;;;;;4.73;3.37;;;19.90;63.80;;;;;;5132545;27;20556;-44
2022/09/22 07:34:26;;;;;;;3.47;3.07;;;20.50;59.40;;;;;;5131095;27;20542;-44
2022/09/22 07:36:52;;;;;;;3.50;2.43;;;21.10;57.60;;;;;;5134878;27;20427;-44
2022/09/22 07:39:18;;;;;;;3.40;2.60;;;21.60;56.20;;;;;;5137321;27;20481;-47
2022/09/22 07:41:43;;;;;;;2.70;2.33;;;21.90;54.80;;;;;;5135907;27;20197;-46
2022/09/22 07:46:55;;;;;;;1.83;1.40;;;23.10;51.50;;;;;;5132872;27;20221;-44
2022/09/22 07:49:21;;;;;;;2.47;1.70;;;23.80;58.50;;;;;;5135197;27;20417;-45
2022/09/22 07:51:53;;;;;;;3.50;1.60;;;24.50;57.40;;;;;;5135074;27;20231;-49
2022/09/22 07:54:20;;;;;;;1.97;1.37;;;25.30;55.30;;;;;;5136416;27;20461;-45
2022/09/22 07:56:45;;;;;;;3.40;1.30;;;26.00;52.30;;;;;;5137257;27;20442;-49
2022/09/22 07:59:12;;;;;;;1.77;1.30;;;26.60;50.60;;;;;;5136340;27;20416;-46
2022/09/22 08:01:43;;;;;;;2.90;1.93;;;27.30;47.90;;;;;;5137430;27;20651;-45
2022/09/22 08:04:15;;;;;;;2.43;1.47;;;28.10;46.70;;;;;;5137965;27;21030;-50
2022/09/22 08:06:45;;;;;;;2.50;1.63;;;28.80;44.90;;;;;;5137674;27;20486;-47
2022/09/22 08:09:11;;;;;;;3.30;1.60;;;29.40;42.60;;;;;;5137718;27;20413;-46
2022/09/22 08:11:37;;;;;;;2.50;1.70;;;30.10;41.30;;;;;;5135057;27;20498;-47
2022/09/22 08:14:09;;;;;;;1.93;1.33;;;30.70;39.70;;;;;;5133960;27;20800;-48
2022/09/22 08:16:38;;;;;;;2.43;1.60;;;31.30;38.20;;;;;;5115859;27;20179;-49
2022/09/22 08:19:11;;;;;;;2.17;1.80;;;31.80;37.10;;;;;;5134593;27;20431;-50
2022/09/22 08:21:37;;;;;;;2.87;1.87;;;32.30;35.50;;;;;;5134086;27;20416;-46
2022/09/22 08:24:08;;;;;;;2.17;1.60;;;32.80;34.00;;;;;;5134794;27;20403;-49
2022/09/22 08:26:35;;;;;;;1.70;1.40;;;33.10;33.10;;;;;;5135236;27;20614;-44
2022/09/22 08:29:03;;;;;;;2.33;1.73;;;33.50;32.50;;;;;;5135723;27;20421;-46
2022/09/22 08:31:29;;;;;;;1.93;1.70;;;33.90;31.60;;;;;;5117859;27;20419;-45
2022/09/22 08:33:55;;;;;;;2.70;1.60;;;34.30;31.30;;;;;;5117000;27;20435;-48
2022/09/22 08:36:22;;;;;;;3.23;1.67;;;34.60;30.60;;;;;;5117104;27;20167;-47
2022/09/22 08:38:48;;;;;;;2.30;1.70;;;34.70;30.20;;;;;;5135870;27;20263;-44
2022/09/22 08:41:38;;;;;;;3.13;2.07;;;35.10;30.00;;;;;;5119145;28;20388;-48
2022/09/22 08:44:07;;;;;;;2.00;1.80;;;35.40;29.80;;;;;;5135020;27;20462;-47
2022/09/22 08:46:35;;;;;;;3.40;1.83;;;35.60;29.30;;;;;;5135869;27;20457;-47
2022/09/22 08:52:14;;;;;;;2.80;1.80;;;35.60;28.20;;;;;;5137661;27;20404;-47
2022/09/22 08:54:41;;;;;;;2.40;1.53;;;35.60;28.60;;;;;;5117847;27;20559;-45
2022/09/22 08:57:48;;;;;;;2.00;1.80;;;35.60;28.90;;;;;;5115274;28;20425;-46
2022/09/22 09:00:17;;;;;;;1.50;1.27;;;35.70;28.60;;;;;;5115355;28;20849;-47
2022/09/22 09:03:21;;;;;;;2.40;1.50;;;35.90;28.80;;;;;;5115684;28;20417;-46
2022/09/22 09:06:00;;;;;;;1.57;1.37;;;36.30;29.20;;;;;;5132994;28;20402;-45
2022/09/22 09:08:56;;;;;;;2.00;1.80;;;36.50;28.30;;;;;;5130754;28;20721;-49
2022/09/22 09:11:41;;;;;;;1.97;1.70;;;36.20;28.00;;;;;;5133674;28;20732;-46
2022/09/22 09:14:25;;;;;;;2.50;1.60;;;36.20;28.30;;;;;;5134562;28;20892;-48
2022/09/22 09:16:57;;;;;;;1.90;1.47;;;36.10;28.40;;;;;;5134463;28;20446;-47
2022/09/22 09:19:41;;;;;;;2.60;1.60;;;36.10;28.50;;;;;;5117071;28;20706;-46
2022/09/22 09:22:24;;;;;;;2.00;1.80;;;36.10;28.60;;;;;;5136014;28;20801;-48
2022/09/22 09:24:57;;;;;;;2.90;1.77;;;36.00;29.00;;;;;;5115392;28;20400;-48
2022/09/22 09:27:25;;;;;;;1.60;1.50;;;35.80;29.00;;;;;;5118828;27;20534;-45
2022/09/22 09:30:17;;;;;;;2.77;2.00;;;35.50;28.60;;;;;;5139049;27;20537;-45
2022/09/22 09:32:59;;;;;;;1.70;1.50;;;35.10;28.50;;;;;;5119381;27;20679;-47
2022/09/22 09:35:37;;;;;;;3.00;1.97;;;34.50;29.10;;;;;;5137325;27;20429;-45
2022/09/22 09:38:08;;;;;;;1.70;1.60;;;34.20;29.20;;;;;;5138395;27;20459;-47
2022/09/22 09:40:33;;;;;;;2.87;1.50;;;33.80;29.10;;;;;;5120960;27;20406;-44
2022/09/22 09:43:03;;;;;;;2.10;1.87;;;33.60;29.20;;;;;;5118772;27;20729;-48
2022/09/22 09:45:56;;;;;;;1.73;1.63;;;33.30;29.60;;;;;;5118672;27;20180;-46
2022/09/22 09:48:36;;;;;;;3.13;1.87;;;33.30;29.70;;;;;;5120926;27;20763;-51
2022/09/22 09:51:07;;;;;;;2.23;1.40;;;33.30;30.00;;;;;;5118641;27;20513;-47
2022/09/22 09:53:39;;;;;;;2.90;1.90;;;33.40;30.00;;;;;;5117847;27;20511;-48
2022/09/22 09:56:22;;;;;;;2.30;2.10;;;33.60;29.90;;;;;;5134645;27;20446;-50
2022/09/22 10:01:44;;;;;;;3.20;1.70;;;33.90;29.10;;;;;;5126570;27;20515;-48
2022/09/22 10:04:36;;;;;;;3.90;1.60;;;34.30;29.60;;;;;;5081343;28;20918;-50
2022/09/22 10:07:16;;;;;;;3.10;1.70;;;34.90;30.00;;;;;;5111684;28;20479;-51
2022/09/22 10:09:43;;;;;;;2.07;1.77;;;35.50;30.30;;;;;;5099393;28;20884;-50
2022/09/22 10:12:29;;;;;;;2.73;1.60;;;36.20;29.30;;;;;;5116334;28;20442;-52
2022/09/22 10:14:59;;;;;;;2.07;1.87;;;37.00;28.70;;;;;;5116302;28;20425;-51
2022/09/22 10:17:29;;;;;;;2.50;1.83;;;37.60;27.90;;;;;;5097682;28;20524;-49
2022/09/22 10:20:15;;;;;;;2.77;1.50;;;38.30;27.70;;;;;;5117978;28;20482;-49
2022/09/22 10:22:41;;;;;;;2.43;1.57;;;39.20;27.70;;;;;;5115739;28;20444;-50
2022/09/22 10:25:31;;;;;;;2.67;1.73;;;39.70;26.90;;;;;;5117277;28;20694;-49
2022/09/22 10:28:02;;;;;;;2.43;1.93;;;40.40;27.00;;;;;;5117859;28;20225;-46
2022/09/22 10:30:36;;;;;;;3.40;1.80;;;41.10;26.50;;;;;;5118460;27;20424;-50
2022/09/22 10:33:19;;;;;;;1.60;1.50;;;41.30;26.70;;;;;;5120090;28;20440;-48
2022/09/22 10:36:09;;;;;;;1.43;1.33;;;41.70;26.40;;;;;;5118079;28;21115;-48
2022/09/22 10:38:38;;;;;;;1.90;1.70;;;42.30;26.00;;;;;;5118371;27;20841;-48
2022/09/22 10:41:13;;;;;;;2.90;1.90;;;42.60;25.10;;;;;;5137381;27;20511;-50
2022/09/22 10:44:00;;;;;;;1.90;1.60;;;42.70;24.90;;;;;;5119875;27;20485;-49
2022/09/22 10:46:50;;;;;;;2.90;1.80;;;42.50;24.70;;;;;;5137899;27;20703;-50
2022/09/22 10:49:40;;;;;;;1.87;1.67;;;42.50;25.20;;;;;;5137918;27;20412;-50
2022/09/22 10:52:26;;;;;;;1.93;1.67;;;42.90;25.10;;;;;;5135348;27;20704;-48
2022/09/22 10:55:17;;;;;;;2.20;1.70;;;43.20;24.40;;;;;;5115563;27;20477;-47
2022/09/22 10:58:01;;;;;;;1.40;1.17;;;43.10;24.70;;;;;;5133268;27;20738;-48
2022/09/22 11:00:27;;;;;;;1.70;1.60;;;43.30;25.00;;;;;;5134961;27;20406;-48
2022/09/22 11:03:08;;;;;;;1.83;1.60;;;43.50;25.10;;;;;;5118472;27;20453;-48
2022/09/22 11:12:15;;;;;;;1.40;1.30;;;43.70;24.30;;;;;;5114889;28;20408;-47
2022/09/22 11:14:44;;;;;;;2.70;1.30;;;43.90;24.50;;;;;;5112882;28;20416;-46
2022/09/22 11:17:19;;;;;;;1.80;1.43;;;44.00;24.60;;;;;;5111299;28;20559;-49
2022/09/22 11:20:04;;;;;;;2.60;1.53;;;44.00;24.70;;;;;;5110604;28;21083;-51
2022/09/22 11:22:47;;;;;;;3.50;1.27;;;44.20;24.70;;;;;;5110956;28;20411;-47
2022/09/22 11:25:40;;;;;;;1.70;1.60;;;44.60;24.50;;;;;;5107603;27;20431;-46
2022/09/22 11:28:19;;;;;;;1.30;1.20;;;44.80;24.60;;;;;;5115350;27;20419;-46
2022/09/22 11:30:49;;;;;;;2.37;1.50;;;45.20;24.20;;;;;;5133599;27;20732;-47
2022/09/22 11:33:23;;;;;;;1.63;1.30;;;45.30;23.90;;;;;;5133965;27;20470;-47
2022/09/22 11:36:06;;;;;;;1.30;1.10;;;45.70;23.90;;;;;;5115852;27;20830;-48
2022/09/22 11:38:31;;;;;;;1.47;1.20;;;45.50;24.20;;;;;;5125769;27;20717;-47
2022/09/22 11:41:19;;;;;;;3.20;1.50;;;45.90;24.20;;;;;;5111935;28;20409;-51
2022/09/22 11:44:04;;;;;;;1.43;1.23;;;46.20;24.00;;;;;;5113604;28;20181;-48
2022/09/22 11:46:59;;;;;;;1.33;1.10;;;46.30;22.70;;;;;;5092620;28;20843;-49
2022/09/22 11:49:40;;;;;;;1.30;1.07;;;45.80;23.40;;;;;;5110770;28;20433;-46
2022/09/22 11:52:26;;;;;;;1.40;1.30;;;45.90;23.70;;;;;;5114464;27;20466;-48
2022/09/22 11:55:19;;;;;;;1.40;1.30;;;46.30;23.30;;;;;;5134286;27;20474;-45
2022/09/22 11:57:49;;;;;;;1.20;1.10;;;46.30;23.30;;;;;;5115300;27;20462;-47
2022/09/22 12:00:17;;;;;;;3.10;1.30;;;46.10;23.40;;;;;;5113608;27;20764;-47
2022/09/22 12:02:53;;;;;;;1.27;1.00;;;45.90;23.50;;;;;;5112917;27;20432;-46
2022/09/22 12:05:25;;;;;;;1.30;1.00;;;46.00;23.60;;;;;;5132820;27;20423;-47
2022/09/22 12:08:03;;;;;;;1.10;1.00;;;46.50;23.00;;;;;;5131348;27;20690;-48
2022/09/22 12:10:34;;;;;;;1.50;1.23;;;46.60;22.90;;;;;;5133335;27;21049;-49
2022/09/22 12:13:03;;;;;;;1.40;1.13;;;46.40;22.20;;;;;;5134203;27;20726;-46
2022/09/22 12:15:47;;;;;;;1.30;1.20;;;46.40;22.70;;;;;;5116081;27;20428;-50
2022/09/22 12:18:21;;;;;;;1.50;1.30;;;46.30;22.30;;;;;;5134972;27;20493;-47
2022/09/22 12:21:11;;;;;;;1.73;1.40;;;46.40;22.50;;;;;;5131314;27;20418;-47
2022/09/22 12:23:47;;;;;;;1.40;1.10;;;46.30;22.80;;;;;;5093595;28;20416;-46
2022/09/22 12:26:27;;;;;;;1.30;1.10;;;46.50;22.40;;;;;;5109775;28;20411;-47
2022/09/22 12:28:53;;;;;;;1.43;1.33;;;46.40;22.90;;;;;;5094220;28;20425;-48
2022/09/22 12:31:20;;;;;;;1.30;1.20;;;46.40;22.40;;;;;;5092447;28;20487;-47
2022/09/22 12:33:48;;;;;;;1.63;1.10;;;46.30;22.90;;;;;;5109589;28;20448;-47
2022/09/22 12:36:16;;;;;;;1.73;1.40;;;46.60;23.00;;;;;;5094707;28;20470;-48
2022/09/22 12:38:43;;;;;;;13.13;1.80;;;46.60;22.70;;;;;;5115492;28;20421;-49
2022/09/22 12:41:15;;;;;;;1.20;1.07;;;46.60;22.90;;;;;;5096696;28;20408;-47
2022/09/22 12:43:42;;;;;;;1.67;1.10;;;46.50;22.60;;;;;;5093742;28;20416;-46
2022/09/22 12:46:24;;;;;;;2.43;1.50;;;46.60;22.80;;;;;;5112743;28;20411;-46
2022/09/22 12:48:50;;;;;;;5.00;1.50;;;46.60;23.00;;;;;;5094515;28;20457;-49
2022/09/22 12:51:25;;;;;;;1.80;1.10;;;46.80;23.10;;;;;;5111237;28;20419;-49
2022/09/22 12:53:51;;;;;;;3.00;1.40;;;46.80;23.00;;;;;;5092855;28;20437;-45
2022/09/22 12:57:01;;;;;;;3.93;1.33;;;47.00;22.90;;;;;;5093227;28;20751;-44
2022/09/22 12:59:39;;;;;;;2.40;1.20;;;47.10;22.90;;;;;;5071118;28;20483;-47
2022/09/22 13:02:10;;;;;;;3.00;1.23;;;47.10;21.60;;;;;;5115573;28;20428;-46
2022/09/22 13:04:36;;;;;;;1.90;1.33;;;46.80;21.40;;;;;;5136348;28;20425;-47
2022/09/22 13:07:04;;;;;;;1.57;1.13;;;46.30;21.50;;;;;;5117732;28;20837;-46
2022/09/22 13:09:30;;;;;;;1.30;1.07;;;46.10;21.40;;;;;;5116521;28;20451;-46
2022/09/22 13:12:11;;;;;;;2.07;1.37;;;46.10;21.30;;;;;;5134138;28;20408;-46
2022/09/22 13:15:18;;;;;;;1.40;1.10;;;45.80;21.90;;;;;;5134924;28;20433;-48
2022/09/22 13:17:46;;;;;;;2.80;1.20;;;45.80;21.90;;;;;;5105185;28;20904;-46
2022/09/22 13:20:15;;;;;;;1.20;1.10;;;46.00;22.40;;;;;;5112721;28;20413;-47
2022/09/22 13:22:43;;;;;;;2.50;1.20;;;46.00;21.60;;;;;;5121660;28;20438;-46
2022/09/22 13:25:24;;;;;;;1.50;1.20;;;46.00;22.10;;;;;;5081990;28;20426;-46
2022/09/22 13:28:07;;;;;;;2.23;1.40;;;46.20;22.20;;;;;;5113357;28;20418;-48
2022/09/22 13:30:39;;;;;;;2.80;1.10;;;46.10;22.10;;;;;;5112323;28;20848;-46
2022/09/22 13:33:04;;;;;;;1.43;1.20;;;46.10;21.60;;;;;;5093083;28;20427;-46